Chanute Martin Johnson Airport Chanute US
ICAO: KCNU
IATA: CNU
Category: Medium
Scheduled Services: No

Elevation: 1002 ft
TransAlt. 18000 ft.

Airport Communications:
ASOS:127.075
KANSAS CITY CNTR:132.9
WICHITA RDO:122.35
CTAF/UNICOM:122.7

KCNU Zoom In..

If you have problems with the map follow the link
https://www.worldairports.se/pages/airport.php?
ICAO=KCNU

Runways:

(A) RW 18 length 4255 ft width 75 ft
---- / hdg 182

(B) RW 36 length 4255 ft width 75 ft
---- / hdg 2

Location; KCNU
Day. 18 / Time. 22.21 Zulu
* Altimeter: 29.69
* Temperature: 11° c. 51.8°f.
* Wind from: 040° Speed 03 kn.
Dewpoint: 07° c.
Visibility: 10 Statute Miles.
Clouds: Overcast 2900 ft.

KCNU 182221Z AUTO 04003KT 10SM OVC029 11/07 A2969 RMK AO2 T01060067


Wind From 040°
Speed 03 kn.

 
 
jpsmedia.com for Web Design worldairports.se 2019   terms of use